createdAt,value
2022-10-20T00:21:31.204Z,100
2022-10-20T00:31:07.744Z,100
2022-10-20T00:40:44.612Z,100
2022-10-20T00:50:21.145Z,100
2022-10-20T00:59:57.811Z,100
2022-10-20T01:09:34.095Z,100
2022-10-20T01:19:10.907Z,100
2022-10-20T01:28:47.487Z,100
2022-10-20T01:38:23.865Z,100
2022-10-20T01:48:00.693Z,100
2022-10-20T01:57:37.517Z,100
2022-10-20T02:07:14.377Z,100
2022-10-20T02:26:28.368Z,100
2022-10-20T02:36:04.864Z,100
2022-10-20T02:45:41.801Z,100
2022-10-20T03:04:55.370Z,100
2022-10-20T03:14:32.379Z,100
2022-10-20T03:24:09.871Z,100
2022-10-20T03:33:48.132Z,100
2022-10-20T03:43:23.397Z,100
2022-10-20T03:52:59.379Z,100
2022-10-20T04:02:36.502Z,100
2022-10-20T04:12:12.517Z,100
2022-10-20T04:21:50.998Z,100
2022-10-20T04:31:26.363Z,100
2022-10-20T04:41:03.980Z,100
2022-10-20T05:00:16.998Z,100
2022-10-20T05:09:53.649Z,100
2022-10-20T05:19:30.130Z,100
2022-10-20T05:29:06.447Z,100
2022-10-20T05:38:43.607Z,100
2022-10-20T05:48:20.579Z,100
2022-10-20T05:57:57.496Z,100
2022-10-20T06:07:34.218Z,100
2022-10-20T06:17:11.415Z,100
2022-10-20T06:26:48.349Z,100
2022-10-20T06:36:26.160Z,100
2022-10-20T06:46:03.123Z,100
2022-10-20T06:55:40.208Z,100
2022-10-20T07:14:54.939Z,100
2022-10-20T07:24:31.791Z,100
2022-10-20T07:34:26.628Z,100
2022-10-20T07:43:46.709Z,100
2022-10-20T07:53:23.859Z,100
2022-10-20T08:03:01.591Z,100
2022-10-20T08:12:39.316Z,100
2022-10-20T08:22:16.068Z,100
2022-10-20T08:31:54.094Z,99.37
2022-10-20T08:41:38.851Z,95.63
2022-10-20T08:51:10.134Z,91.64
2022-10-20T09:00:48.025Z,86.81
2022-10-20T09:10:25.687Z,85.95
2022-10-20T09:20:03.491Z,81.92
2022-10-20T09:29:40.388Z,80.64
2022-10-20T09:39:18.558Z,76.25
2022-10-20T09:48:56.099Z,70.09
2022-10-20T09:58:33.369Z,70.76
2022-10-20T10:17:48.534Z,65.22
2022-10-20T10:27:26.634Z,64.6
2022-10-20T10:37:13.312Z,58.96
2022-10-20T10:47:10.511Z,55.84
2022-10-20T10:57:11.819Z,51.98
2022-10-20T11:06:57.845Z,48.08
2022-10-20T11:16:34.669Z,46.7
2022-10-20T11:26:11.733Z,45.43
2022-10-20T11:35:49.983Z,44.92
2022-10-20T11:45:27.744Z,45.2
2022-10-20T12:14:23.286Z,39.23
2022-10-20T12:23:53.455Z,39.24
2022-10-20T12:43:19.483Z,38.89
2022-10-20T12:52:59.366Z,37.62
2022-10-20T13:02:32.608Z,38.98
2022-10-20T13:12:10.668Z,39.42
2022-10-20T13:21:36.998Z,41.18
2022-10-20T13:31:02.030Z,43.76
2022-10-20T13:40:38.760Z,45.01
2022-10-20T13:50:14.116Z,45.38
2022-10-20T13:59:45.221Z,46.69
2022-10-20T14:09:20.553Z,47.28
2022-10-20T14:38:21.767Z,45.46
2022-10-20T14:47:53.655Z,48.97
2022-10-20T14:57:27.820Z,52.03
2022-10-20T15:07:01.974Z,52.89
2022-10-20T15:16:36.911Z,53.8
2022-10-20T15:26:12.530Z,55.56
2022-10-20T15:35:47.835Z,57.15
2022-10-20T15:45:23.878Z,60.12
2022-10-20T15:55:02.457Z,63.06
2022-10-20T16:04:37.036Z,64.86
2022-10-20T16:14:13.639Z,66.8
2022-10-20T16:33:29.023Z,69.28
2022-10-20T16:43:04.359Z,70.58
2022-10-20T16:52:43.611Z,72.25
2022-10-20T17:02:21.338Z,70.96
2022-10-20T17:11:58.048Z,70.95
2022-10-20T17:21:33.805Z,70.25
2022-10-20T17:40:48.645Z,69.53
2022-10-20T17:50:25.710Z,69.71
2022-10-20T18:00:07.816Z,69.87
2022-10-20T18:09:40.032Z,71.36
2022-10-20T18:19:19.484Z,81.51
2022-10-20T18:38:31.387Z,81.78
2022-10-20T18:48:10.780Z,81.96
2022-10-20T18:57:46.717Z,81.54
2022-10-20T19:07:23.483Z,83.69
2022-10-20T19:16:59.849Z,83.67
2022-10-20T19:26:36.999Z,85.11
2022-10-20T19:36:15.469Z,85.31
2022-10-20T19:45:50.567Z,85.23
2022-10-20T19:55:28.488Z,84.89
2022-10-20T20:05:04.447Z,85.35
2022-10-20T20:14:43.400Z,84.63
2022-10-20T20:24:19.265Z,85.04
2022-10-20T20:33:58.566Z,83.31
2022-10-20T20:43:34.537Z,84.27
2022-10-20T20:53:09.540Z,87.53
2022-10-20T21:02:45.884Z,90.49
2022-10-20T21:12:22.763Z,91.4
2022-10-20T21:21:59.488Z,91.77
2022-10-20T21:31:36.494Z,93.57
2022-10-20T21:41:15.435Z,91.68
2022-10-20T21:50:50.969Z,91.16
2022-10-20T22:00:31.334Z,89.02
2022-10-20T22:10:06.714Z,88.38
2022-10-20T22:19:43.693Z,88.41
2022-10-20T22:29:22.964Z,86.54
2022-10-20T22:38:56.681Z,86.26
2022-10-20T22:48:34.699Z,85.17
2022-10-20T22:58:10.208Z,86.5
2022-10-20T23:07:47.993Z,87
2022-10-20T23:17:24.708Z,84.15
2022-10-20T23:27:01.887Z,84.3
2022-10-20T23:36:39.237Z,79.65
2022-10-20T23:46:16.685Z,80.92
2022-10-20T23:55:54.577Z,78.58
